Time;durP1;ratioP1;P1;durP2;ratioP2;P2;SDS_P1;SDS_P2;PMS_P1;PMS_P2;Temp;Humidity;BMP_temperature;BMP_pressure;BME280_temperature;BME280_humidity;BME280_pressure;Samples;Min_cycle;Max_cycle;Signal;HPM_P1;HPM_P2
2021/07/10 00:01:43;;;;;;;33.85;22.67;;;;;;;;;;4997413;28;20559;-68
2021/07/10 00:04:08;;;;;;;32.00;22.48;;;;;;;;;;5019007;28;20214;-68
2021/07/10 00:06:34;;;;;;;37.33;24.35;;;;;;;;;;5019756;28;20208;-69
2021/07/10 00:08:59;;;;;;;32.22;22.73;;;;;;;;;;5016418;28;20192;-68
2021/07/10 00:11:24;;;;;;;30.23;23.05;;;;;;;;;;5025006;28;20662;-68
2021/07/10 00:13:50;;;;;;;34.80;24.75;;;;;;;;;;4999183;28;20337;-68
2021/07/10 00:16:15;;;;;;;32.35;24.05;;;;;;;;;;5021052;28;20190;-68
2021/07/10 00:18:40;;;;;;;29.15;22.83;;;;;;;;;;5014930;28;20260;-68
2021/07/10 00:21:06;;;;;;;33.10;23.77;;;;;;;;;;5025235;28;20273;-68
2021/07/10 00:23:32;;;;;;;30.05;22.50;;;;;;;;;;5015203;28;20185;-68
2021/07/10 00:25:57;;;;;;;30.92;23.55;;;;;;;;;;5023916;28;20184;-69
2021/07/10 00:28:22;;;;;;;33.25;24.67;;;;;;;;;;5013533;28;20186;-68
2021/07/10 00:30:48;;;;;;;31.52;24.23;;;;;;;;;;5013457;28;20555;-68
2021/07/10 00:33:13;;;;;;;31.95;23.52;;;;;;;;;;5015780;28;20174;-68
2021/07/10 00:35:39;;;;;;;34.78;25.45;;;;;;;;;;5023237;28;20224;-69
2021/07/10 00:38:05;;;;;;;36.35;25.65;;;;;;;;;;5021723;28;20190;-68
2021/07/10 00:40:30;;;;;;;37.03;25.02;;;;;;;;;;5010445;28;20182;-68
2021/07/10 00:42:56;;;;;;;33.88;25.08;;;;;;;;;;5022474;28;20224;-68
2021/07/10 00:45:21;;;;;;;31.52;24.05;;;;;;;;;;5011104;28;20197;-68
2021/07/10 00:47:46;;;;;;;36.58;25.35;;;;;;;;;;4985378;28;1030849;-68
2021/07/10 00:50:14;;;;;;;35.20;24.77;;;;;;;;;;5014309;28;20213;-69
2021/07/10 00:52:41;;;;;;;34.65;23.98;;;;;;;;;;5028272;28;21226;-68
2021/07/10 00:55:07;;;;;;;33.80;24.27;;;;;;;;;;5013475;28;20590;-68
2021/07/10 00:57:34;;;;;;;35.78;25.73;;;;;;;;;;5026668;28;20320;-68
2021/07/10 01:00:03;;;;;;;34.50;24.08;;;;;;;;;;5015091;28;20221;-69
2021/07/10 01:02:28;;;;;;;32.42;24.60;;;;;;;;;;5024816;28;20195;-68
2021/07/10 01:04:54;;;;;;;41.25;26.27;;;;;;;;;;5016194;28;20190;-68
2021/07/10 01:07:19;;;;;;;36.60;25.98;;;;;;;;;;5024349;28;20213;-68
2021/07/10 01:09:44;;;;;;;35.50;25.80;;;;;;;;;;5027042;28;20289;-68
2021/07/10 01:12:10;;;;;;;35.83;25.58;;;;;;;;;;5016794;28;20200;-68
2021/07/10 01:14:36;;;;;;;37.90;26.35;;;;;;;;;;5023193;28;20210;-68
2021/07/10 01:17:01;;;;;;;41.40;27.20;;;;;;;;;;5016900;28;20525;-68
2021/07/10 01:19:27;;;;;;;37.50;26.55;;;;;;;;;;5023844;28;20190;-68
2021/07/10 01:21:54;;;;;;;37.95;25.30;;;;;;;;;;5016513;28;20329;-68
2021/07/10 01:24:20;;;;;;;36.55;26.65;;;;;;;;;;5020413;28;20206;-68
2021/07/10 01:26:45;;;;;;;35.53;25.38;;;;;;;;;;5018478;28;20543;-68
2021/07/10 01:29:11;;;;;;;34.97;25.10;;;;;;;;;;5023809;28;20186;-68
2021/07/10 01:31:38;;;;;;;35.25;25.42;;;;;;;;;;5015743;28;20187;-68
2021/07/10 01:34:04;;;;;;;32.40;23.95;;;;;;;;;;5031335;28;20540;-68
2021/07/10 01:36:29;;;;;;;35.75;24.85;;;;;;;;;;5018182;28;20182;-68
2021/07/10 01:38:55;;;;;;;32.45;24.45;;;;;;;;;;5007169;28;20224;-68
2021/07/10 01:41:20;;;;;;;34.33;23.83;;;;;;;;;;5023548;28;20721;-68
2021/07/10 01:43:45;;;;;;;33.38;24.75;;;;;;;;;;5016958;28;20204;-69
2021/07/10 01:46:11;;;;;;;33.53;24.67;;;;;;;;;;5021575;28;20184;-69
2021/07/10 01:48:36;;;;;;;36.80;25.15;;;;;;;;;;5013335;28;20237;-69
2021/07/10 01:51:02;;;;;;;31.52;23.85;;;;;;;;;;5023126;28;20201;-69
2021/07/10 01:53:27;;;;;;;32.65;24.27;;;;;;;;;;5014254;28;20220;-69
2021/07/10 01:55:53;;;;;;;32.83;24.83;;;;;;;;;;5021327;28;20692;-69
2021/07/10 01:58:18;;;;;;;30.38;23.35;;;;;;;;;;5010675;28;20252;-69
2021/07/10 02:00:44;;;;;;;33.42;24.90;;;;;;;;;;5019819;28;20198;-69
2021/07/10 02:03:12;;;;;;;33.25;24.15;;;;;;;;;;5010682;28;20239;-69
2021/07/10 02:05:37;;;;;;;32.25;23.42;;;;;;;;;;5020186;28;20186;-69
2021/07/10 02:08:04;;;;;;;37.10;24.95;;;;;;;;;;5013601;28;20256;-69
2021/07/10 02:10:31;;;;;;;31.92;24.40;;;;;;;;;;5024673;28;20189;-69
2021/07/10 02:13:01;;;;;;;32.45;23.15;;;;;;;;;;5024624;28;20192;-69
2021/07/10 02:15:27;;;;;;;31.50;22.45;;;;;;;;;;5012910;28;20283;-69
2021/07/10 02:17:53;;;;;;;31.42;22.77;;;;;;;;;;5020650;28;20681;-69
2021/07/10 02:20:22;;;;;;;33.85;24.13;;;;;;;;;;5013698;28;20194;-69
2021/07/10 02:22:48;;;;;;;34.28;23.60;;;;;;;;;;5022457;28;20190;-69
2021/07/10 02:25:16;;;;;;;35.75;24.63;;;;;;;;;;5014943;28;20209;-69
2021/07/10 02:27:43;;;;;;;32.95;23.25;;;;;;;;;;5019909;28;20189;-69
2021/07/10 02:30:11;;;;;;;36.58;25.20;;;;;;;;;;5010824;28;20201;-69
2021/07/10 02:32:37;;;;;;;36.55;24.35;;;;;;;;;;5022279;28;20212;-69
2021/07/10 02:35:08;;;;;;;35.13;24.30;;;;;;;;;;5007689;28;20206;-69
2021/07/10 02:37:33;;;;;;;35.42;25.38;;;;;;;;;;5019397;28;20193;-68
2021/07/10 02:39:59;;;;;;;36.58;24.35;;;;;;;;;;5007684;28;20189;-68
2021/07/10 02:42:24;;;;;;;31.23;23.33;;;;;;;;;;5019561;28;20197;-69
2021/07/10 02:44:50;;;;;;;32.97;24.05;;;;;;;;;;5015095;28;20280;-69
2021/07/10 02:47:15;;;;;;;41.33;27.42;;;;;;;;;;5019097;28;20337;-68
2021/07/10 02:49:40;;;;;;;37.75;25.20;;;;;;;;;;5016543;28;20218;-68
2021/07/10 02:52:08;;;;;;;38.47;26.58;;;;;;;;;;5008036;28;20217;-69
2021/07/10 02:54:35;;;;;;;39.45;25.05;;;;;;;;;;5020952;28;20272;-69
2021/07/10 02:57:00;;;;;;;39.42;26.13;;;;;;;;;;5009975;28;20259;-69
2021/07/10 02:59:25;;;;;;;35.97;25.48;;;;;;;;;;5014869;28;20186;-69
2021/07/10 03:01:51;;;;;;;43.75;28.13;;;;;;;;;;5010598;28;20196;-69
2021/07/10 03:04:16;;;;;;;36.35;25.75;;;;;;;;;;5015381;28;20643;-68
2021/07/10 03:06:41;;;;;;;34.97;25.25;;;;;;;;;;5009743;28;20198;-69
2021/07/10 03:09:07;;;;;;;34.90;26.20;;;;;;;;;;5020893;28;20183;-69
2021/07/10 03:11:32;;;;;;;35.45;25.10;;;;;;;;;;5011962;28;20190;-69
2021/07/10 03:13:57;;;;;;;35.33;25.20;;;;;;;;;;5020880;28;20300;-69
2021/07/10 03:16:22;;;;;;;34.47;24.58;;;;;;;;;;5011148;28;20302;-69
2021/07/10 03:18:48;;;;;;;35.33;24.92;;;;;;;;;;5015817;28;20779;-69
2021/07/10 03:21:13;;;;;;;37.67;27.08;;;;;;;;;;5017300;28;20196;-69
2021/07/10 03:23:38;;;;;;;33.70;25.50;;;;;;;;;;5006973;28;20184;-69
2021/07/10 03:26:04;;;;;;;40.63;25.90;;;;;;;;;;5018715;28;20178;-69
2021/07/10 03:28:29;;;;;;;33.08;25.17;;;;;;;;;;4994936;28;20260;-69
2021/07/10 03:30:55;;;;;;;39.30;27.13;;;;;;;;;;5018917;28;20272;-69
2021/07/10 03:33:21;;;;;;;36.33;26.23;;;;;;;;;;5011806;28;20656;-69
2021/07/10 03:35:47;;;;;;;36.80;25.60;;;;;;;;;;5018385;28;20290;-68
2021/07/10 03:38:12;;;;;;;38.15;25.92;;;;;;;;;;5010946;28;20398;-69
2021/07/10 03:40:38;;;;;;;33.78;24.52;;;;;;;;;;5022946;28;20551;-68
2021/07/10 03:43:04;;;;;;;40.05;27.17;;;;;;;;;;5013799;28;20206;-69
2021/07/10 03:45:30;;;;;;;37.78;26.80;;;;;;;;;;5022644;28;20194;-68
2021/07/10 03:47:55;;;;;;;42.60;27.50;;;;;;;;;;5016745;28;20605;-68
2021/07/10 03:50:21;;;;;;;40.13;29.05;;;;;;;;;;5011186;28;20198;-69
2021/07/10 03:52:47;;;;;;;41.72;27.67;;;;;;;;;;5027068;28;20186;-69
2021/07/10 03:55:13;;;;;;;40.45;28.63;;;;;;;;;;5014071;28;20210;-69
2021/07/10 03:57:39;;;;;;;43.17;28.23;;;;;;;;;;5025248;28;20272;-69
2021/07/10 04:00:11;;;;;;;44.08;29.60;;;;;;;;;;5013861;28;20216;-69
2021/07/10 04:02:36;;;;;;;47.22;30.13;;;;;;;;;;5020858;28;20286;-69
2021/07/10 04:05:03;;;;;;;44.63;30.70;;;;;;;;;;5013692;28;21406;-69
2021/07/10 04:07:30;;;;;;;43.63;30.17;;;;;;;;;;4999161;28;20221;-68
2021/07/10 04:09:56;;;;;;;44.22;30.88;;;;;;;;;;5016009;28;20198;-68
2021/07/10 04:12:21;;;;;;;41.05;29.52;;;;;;;;;;5027693;28;20660;-69
2021/07/10 04:14:46;;;;;;;41.28;29.90;;;;;;;;;;5016398;28;20207;-68
2021/07/10 04:17:12;;;;;;;41.03;29.15;;;;;;;;;;5023744;28;20232;-68
2021/07/10 04:19:37;;;;;;;42.97;29.17;;;;;;;;;;5013270;28;20199;-68
2021/07/10 04:22:02;;;;;;;45.58;30.67;;;;;;;;;;5017740;28;20263;-68
2021/07/10 04:24:28;;;;;;;46.60;30.73;;;;;;;;;;5021494;28;20178;-68
2021/07/10 04:26:53;;;;;;;46.22;30.45;;;;;;;;;;5016735;28;20205;-68
2021/07/10 04:29:18;;;;;;;43.38;30.10;;;;;;;;;;5022082;28;20196;-69
2021/07/10 04:31:44;;;;;;;46.35;30.58;;;;;;;;;;5016934;28;20284;-68
2021/07/10 04:34:09;;;;;;;44.85;31.70;;;;;;;;;;5021765;28;20293;-68
2021/07/10 04:36:34;;;;;;;42.53;29.52;;;;;;;;;;5009702;28;20190;-68
2021/07/10 04:39:00;;;;;;;44.03;29.45;;;;;;;;;;5021806;28;20240;-68
2021/07/10 04:41:25;;;;;;;39.90;29.55;;;;;;;;;;4995288;28;20473;-69
2021/07/10 04:43:50;;;;;;;41.67;29.67;;;;;;;;;;5022728;28;20186;-69
2021/07/10 04:46:16;;;;;;;40.60;28.88;;;;;;;;;;5014880;28;20214;-68
2021/07/10 04:48:41;;;;;;;38.03;28.67;;;;;;;;;;5023189;28;20230;-69
2021/07/10 04:51:07;;;;;;;37.90;26.50;;;;;;;;;;5014340;28;20191;-69
2021/07/10 04:53:32;;;;;;;39.92;29.30;;;;;;;;;;5006011;28;20281;-68
2021/07/10 04:55:57;;;;;;;35.53;27.15;;;;;;;;;;5027526;28;20252;-68
2021/07/10 04:58:23;;;;;;;40.63;28.33;;;;;;;;;;5014635;28;20182;-68
2021/07/10 05:00:49;;;;;;;38.45;28.17;;;;;;;;;;5025021;28;20236;-68
2021/07/10 05:03:15;;;;;;;36.95;27.30;;;;;;;;;;5015224;28;20236;-68
2021/07/10 05:05:40;;;;;;;38.55;28.48;;;;;;;;;;5024380;28;20551;-68
2021/07/10 05:08:06;;;;;;;37.67;28.38;;;;;;;;;;5014144;28;20679;-69
2021/07/10 05:10:32;;;;;;;36.95;28.25;;;;;;;;;;5025572;28;20195;-68
2021/07/10 05:12:58;;;;;;;35.67;26.17;;;;;;;;;;5014223;28;20201;-68
2021/07/10 05:15:23;;;;;;;42.95;29.55;;;;;;;;;;5022846;28;20625;-68
2021/07/10 05:17:48;;;;;;;40.80;28.65;;;;;;;;;;5014225;28;20294;-68
2021/07/10 05:20:15;;;;;;;38.65;28.25;;;;;;;;;;5025235;28;20192;-68
2021/07/10 05:22:41;;;;;;;35.72;27.05;;;;;;;;;;5024951;28;20182;-68
2021/07/10 05:25:08;;;;;;;35.67;27.10;;;;;;;;;;5019449;28;20193;-68
2021/07/10 05:27:33;;;;;;;37.75;27.48;;;;;;;;;;5023990;28;20701;-68
2021/07/10 05:29:58;;;;;;;32.40;24.75;;;;;;;;;;5015530;28;20339;-69
2021/07/10 05:32:24;;;;;;;30.70;24.58;;;;;;;;;;5008152;28;20194;-68
2021/07/10 05:34:49;;;;;;;30.17;23.67;;;;;;;;;;5017963;28;20322;-69
2021/07/10 05:37:14;;;;;;;30.15;21.48;;;;;;;;;;5024578;28;20226;-68
2021/07/10 05:39:42;;;;;;;30.95;23.05;;;;;;;;;;5018112;28;20186;-68
2021/07/10 05:42:08;;;;;;;31.30;22.73;;;;;;;;;;5025351;28;20194;-69
2021/07/10 05:44:33;;;;;;;30.23;22.20;;;;;;;;;;5018002;28;20186;-69
2021/07/10 05:46:59;;;;;;;28.75;21.30;;;;;;;;;;5024240;28;20174;-69
2021/07/10 05:49:24;;;;;;;25.75;20.98;;;;;;;;;;5018381;28;20230;-69
2021/07/10 05:51:50;;;;;;;27.92;22.48;;;;;;;;;;5022927;28;20549;-69
2021/07/10 05:54:15;;;;;;;32.00;21.95;;;;;;;;;;5020076;28;20206;-69
2021/07/10 05:56:41;;;;;;;27.77;21.25;;;;;;;;;;5015201;28;20221;-69
2021/07/10 05:59:07;;;;;;;30.77;21.60;;;;;;;;;;5022214;28;20270;-70
2021/07/10 06:01:32;;;;;;;27.35;21.05;;;;;;;;;;5010305;28;20206;-71
2021/07/10 06:03:58;;;;;;;25.55;21.40;;;;;;;;;;5019893;28;20202;-70
2021/07/10 06:06:23;;;;;;;27.65;21.02;;;;;;;;;;5005789;28;20181;-69
2021/07/10 06:08:48;;;;;;;24.73;20.35;;;;;;;;;;5020844;28;20214;-70
2021/07/10 06:11:15;;;;;;;30.02;21.10;;;;;;;;;;5012233;28;20291;-68
2021/07/10 06:13:40;;;;;;;29.63;21.08;;;;;;;;;;5015413;28;20221;-69
2021/07/10 06:16:06;;;;;;;28.25;20.75;;;;;;;;;;5007276;28;20233;-70
2021/07/10 06:18:31;;;;;;;26.70;21.05;;;;;;;;;;5016570;28;20190;-71
2021/07/10 06:20:56;;;;;;;26.42;19.42;;;;;;;;;;5013432;28;20186;-70
2021/07/10 06:23:22;;;;;;;27.20;20.48;;;;;;;;;;5014926;28;20194;-70
2021/07/10 06:25:47;;;;;;;23.42;19.10;;;;;;;;;;5017992;28;20671;-70
2021/07/10 06:28:13;;;;;;;24.20;19.40;;;;;;;;;;5010968;28;20194;-70
2021/07/10 06:30:38;;;;;;;23.40;19.20;;;;;;;;;;5013466;28;20209;-69
2021/07/10 06:33:04;;;;;;;25.67;19.65;;;;;;;;;;5011615;28;20182;-71
2021/07/10 06:35:30;;;;;;;25.88;19.88;;;;;;;;;;4998333;28;20191;-70
2021/07/10 06:37:55;;;;;;;26.55;20.02;;;;;;;;;;5013871;28;20195;-70
2021/07/10 06:40:21;;;;;;;23.52;19.50;;;;;;;;;;5016860;28;20634;-70
2021/07/10 06:42:46;;;;;;;24.48;19.48;;;;;;;;;;5011851;28;20194;-70
2021/07/10 06:45:14;;;;;;;22.52;18.60;;;;;;;;;;5018228;28;20634;-71
2021/07/10 06:47:40;;;;;;;27.00;19.75;;;;;;;;;;5014158;28;20218;-70
2021/07/10 06:50:08;;;;;;;27.10;20.65;;;;;;;;;;5020604;28;20656;-72
2021/07/10 06:52:34;;;;;;;28.02;20.48;;;;;;;;;;5013836;28;20316;-71
2021/07/10 06:54:59;;;;;;;23.00;19.15;;;;;;;;;;5015554;28;20293;-71
2021/07/10 06:57:24;;;;;;;25.75;21.42;;;;;;;;;;5001239;28;20244;-72
2021/07/10 06:59:50;;;;;;;29.13;21.73;;;;;;;;;;5012122;28;20604;-72
2021/07/10 07:02:15;;;;;;;29.70;22.20;;;;;;;;;;5020407;28;20609;-72
2021/07/10 07:04:41;;;;;;;26.20;21.48;;;;;;;;;;5008545;28;20538;-71
2021/07/10 07:07:07;;;;;;;23.92;19.20;;;;;;;;;;5015963;28;20256;-72
2021/07/10 07:09:32;;;;;;;27.55;21.77;;;;;;;;;;5010411;28;20704;-71
2021/07/10 07:11:58;;;;;;;27.45;22.55;;;;;;;;;;5020556;28;20202;-72
2021/07/10 07:14:23;;;;;;;29.02;21.77;;;;;;;;;;5011821;28;20595;-71
2021/07/10 07:16:49;;;;;;;30.45;23.05;;;;;;;;;;5005191;28;20210;-71
2021/07/10 07:19:14;;;;;;;31.20;22.73;;;;;;;;;;5011356;28;20252;-70
2021/07/10 07:21:40;;;;;;;26.48;22.00;;;;;;;;;;5025331;28;20589;-70
2021/07/10 07:24:06;;;;;;;28.77;22.98;;;;;;;;;;5012225;28;20213;-71
2021/07/10 07:26:32;;;;;;;34.15;22.85;;;;;;;;;;5023836;28;20264;-70
2021/07/10 07:28:57;;;;;;;33.22;23.90;;;;;;;;;;5026798;28;20954;-69
2021/07/10 07:31:22;;;;;;;29.70;23.60;;;;;;;;;;5016832;28;20190;-69
2021/07/10 07:33:47;;;;;;;31.83;24.23;;;;;;;;;;5021819;28;20610;-69
2021/07/10 07:36:13;;;;;;;29.17;22.52;;;;;;;;;;5016534;28;20206;-70
2021/07/10 07:38:38;;;;;;;28.90;21.70;;;;;;;;;;5021116;28;20545;-69
2021/07/10 07:41:05;;;;;;;30.23;22.02;;;;;;;;;;5015522;28;20190;-70
2021/07/10 07:43:30;;;;;;;31.27;22.92;;;;;;;;;;5025523;28;20189;-69
2021/07/10 07:45:56;;;;;;;30.25;23.17;;;;;;;;;;5015845;28;20182;-69
2021/07/10 07:48:21;;;;;;;29.52;23.63;;;;;;;;;;5022969;28;20240;-69
2021/07/10 07:50:47;;;;;;;34.13;23.23;;;;;;;;;;5014390;28;20212;-69
2021/07/10 07:53:16;;;;;;;32.28;22.73;;;;;;;;;;5021520;28;20221;-70
2021/07/10 07:55:41;;;;;;;33.15;23.02;;;;;;;;;;5013979;28;20503;-69
2021/07/10 07:58:06;;;;;;;30.25;21.65;;;;;;;;;;5023150;28;20403;-69
2021/07/10 08:00:32;;;;;;;30.48;23.67;;;;;;;;;;5021137;28;20638;-68
2021/07/10 08:02:57;;;;;;;31.88;22.38;;;;;;;;;;5013847;28;20200;-69
2021/07/10 08:05:23;;;;;;;29.20;22.65;;;;;;;;;;5025271;28;20265;-69
2021/07/10 08:07:48;;;;;;;28.73;21.77;;;;;;;;;;5017584;28;20285;-69
2021/07/10 08:10:15;;;;;;;31.90;22.58;;;;;;;;;;5019379;28;20265;-70
2021/07/10 08:12:44;;;;;;;27.00;20.63;;;;;;;;;;5013970;28;20356;-70
2021/07/10 08:15:10;;;;;;;24.08;18.40;;;;;;;;;;5022219;28;20201;-71
2021/07/10 08:17:36;;;;;;;25.42;19.50;;;;;;;;;;5016207;28;20621;-71
2021/07/10 08:20:03;;;;;;;20.80;17.05;;;;;;;;;;5023671;28;20221;-71
2021/07/10 08:22:28;;;;;;;24.58;19.60;;;;;;;;;;5014174;28;20308;-71
2021/07/10 08:24:54;;;;;;;26.70;21.95;;;;;;;;;;5017795;28;20269;-70
2021/07/10 08:27:19;;;;;;;27.75;21.10;;;;;;;;;;5008504;28;20198;-71
2021/07/10 08:29:45;;;;;;;26.77;21.23;;;;;;;;;;5024606;28;20183;-70
2021/07/10 08:32:10;;;;;;;31.23;22.45;;;;;;;;;;5024683;28;20190;-69
2021/07/10 08:34:35;;;;;;;29.25;22.85;;;;;;;;;;5015883;28;20217;-69
2021/07/10 08:37:02;;;;;;;29.42;23.17;;;;;;;;;;5022415;28;20192;-69
2021/07/10 08:39:29;;;;;;;31.73;23.27;;;;;;;;;;5019146;28;20285;-70
2021/07/10 08:41:55;;;;;;;32.50;22.77;;;;;;;;;;5026928;28;20638;-71
2021/07/10 08:44:20;;;;;;;31.40;22.23;;;;;;;;;;5017627;28;20197;-71
2021/07/10 08:46:46;;;;;;;28.88;21.65;;;;;;;;;;5023853;28;20189;-70
2021/07/10 08:49:14;;;;;;;29.88;21.48;;;;;;;;;;5012554;28;20237;-70
2021/07/10 08:51:43;;;;;;;34.05;23.75;;;;;;;;;;5022738;28;20198;-70
2021/07/10 08:54:09;;;;;;;29.05;21.23;;;;;;;;;;5009069;28;20553;-70
2021/07/10 08:56:34;;;;;;;34.22;22.38;;;;;;;;;;5023912;28;20194;-70
2021/07/10 08:59:00;;;;;;;33.83;22.40;;;;;;;;;;5013894;28;20240;-70
2021/07/10 09:01:26;;;;;;;28.50;21.35;;;;;;;;;;5022261;28;20230;-69
2021/07/10 09:03:51;;;;;;;28.48;21.50;;;;;;;;;;5015481;28;20182;-69
2021/07/10 09:06:16;;;;;;;27.42;20.92;;;;;;;;;;5001410;28;20182;-69
2021/07/10 09:08:43;;;;;;;25.17;18.00;;;;;;;;;;5023618;28;20178;-70
2021/07/10 09:11:14;;;;;;;22.90;17.75;;;;;;;;;;5013497;28;20205;-70
2021/07/10 09:13:50;;;;;;;24.80;17.23;;;;;;;;;;5022138;28;20179;-69
2021/07/10 09:16:25;;;;;;;22.40;15.02;;;;;;;;;;5013413;28;20210;-71
2021/07/10 09:18:56;;;;;;;23.08;15.27;;;;;;;;;;5001916;28;20182;-69
2021/07/10 09:21:40;;;;;;;24.17;17.25;;;;;;;;;;5015203;28;20189;-70
2021/07/10 09:24:09;;;;;;;25.27;17.40;;;;;;;;;;5024618;28;20660;-71
2021/07/10 09:26:45;;;;;;;18.80;12.90;;;;;;;;;;4996543;28;20193;-71
2021/07/10 09:29:24;;;;;;;13.73;11.20;;;;;;;;;;5018552;28;20194;-75
2021/07/10 09:32:01;;;;;;;17.17;12.25;;;;;;;;;;5011225;28;20190;-72
2021/07/10 09:34:38;;;;;;;14.63;12.38;;;;;;;;;;5017997;28;20217;-71
2021/07/10 09:37:03;;;;;;;16.52;12.07;;;;;;;;;;4996826;28;20622;-72
2021/07/10 09:39:32;;;;;;;21.70;12.95;;;;;;;;;;5019804;28;20284;-71
2021/07/10 09:42:00;;;;;;;16.73;12.50;;;;;;;;;;5015978;28;20198;-72
2021/07/10 09:44:41;;;;;;;13.75;10.20;;;;;;;;;;5024337;28;20558;-71
2021/07/10 09:47:06;;;;;;;12.27;8.52;;;;;;;;;;5015468;28;20607;-71
2021/07/10 09:49:32;;;;;;;14.43;11.10;;;;;;;;;;5023480;28;20229;-70
2021/07/10 09:51:59;;;;;;;15.35;11.75;;;;;;;;;;5012038;28;20195;-70
2021/07/10 09:54:30;;;;;;;14.07;9.95;;;;;;;;;;5023065;28;20301;-71
2021/07/10 09:57:15;;;;;;;10.70;8.60;;;;;;;;;;5015214;28;20908;-70
2021/07/10 09:59:43;;;;;;;12.75;9.57;;;;;;;;;;5024334;28;20212;-72
2021/07/10 10:02:14;;;;;;;13.52;9.75;;;;;;;;;;5009599;28;22611;-70
2021/07/10 10:04:40;;;;;;;12.43;10.20;;;;;;;;;;5024921;28;20170;-70
2021/07/10 10:07:11;;;;;;;12.65;9.60;;;;;;;;;;5021503;28;20672;-71
2021/07/10 10:09:37;;;;;;;10.90;8.13;;;;;;;;;;5023220;28;20225;-70
2021/07/10 10:12:12;;;;;;;10.05;6.72;;;;;;;;;;5025363;28;20189;-71
2021/07/10 10:14:50;;;;;;;9.70;7.75;;;;;;;;;;5013752;28;20427;-73
2021/07/10 10:17:18;;;;;;;11.18;9.18;;;;;;;;;;5023640;28;20280;-70
2021/07/10 10:19:43;;;;;;;11.82;8.40;;;;;;;;;;5015676;28;20681;-70
2021/07/10 10:22:11;;;;;;;10.25;8.15;;;;;;;;;;5024224;28;20248;-72
2021/07/10 10:24:39;;;;;;;12.60;11.15;;;;;;;;;;5015925;28;20190;-70
2021/07/10 10:27:06;;;;;;;13.50;11.20;;;;;;;;;;5023028;28;20190;-70
2021/07/10 10:29:33;;;;;;;15.48;11.25;;;;;;;;;;5014731;28;20559;-70
2021/07/10 10:31:59;;;;;;;15.38;11.18;;;;;;;;;;5023448;28;20677;-69
2021/07/10 10:34:25;;;;;;;14.30;11.27;;;;;;;;;;5017849;28;20218;-71
2021/07/10 10:36:53;;;;;;;13.38;10.48;;;;;;;;;;5021303;28;20194;-71
2021/07/10 10:39:29;;;;;;;20.65;10.38;;;;;;;;;;5010938;28;20190;-71
2021/07/10 10:42:04;;;;;;;15.82;11.38;;;;;;;;;;5021088;28;20190;-70
2021/07/10 10:44:41;;;;;;;15.93;11.20;;;;;;;;;;5017871;28;20243;-71
2021/07/10 10:47:09;;;;;;;12.38;9.35;;;;;;;;;;5024250;28;20189;-70
2021/07/10 10:49:35;;;;;;;14.65;10.05;;;;;;;;;;5019988;28;23166;-70
2021/07/10 10:52:17;;;;;;;13.57;11.00;;;;;;;;;;5028568;28;20182;-72
2021/07/10 10:54:55;;;;;;;15.75;11.95;;;;;;;;;;5016941;28;20292;-73
2021/07/10 10:57:52;;;;;;;16.52;12.15;;;;;;;;;;5023763;28;20190;-71
2021/07/10 11:00:23;;;;;;;16.77;11.88;;;;;;;;;;5014033;28;20347;-69
2021/07/10 11:02:49;;;;;;;15.75;10.98;;;;;;;;;;5028120;28;20195;-72
2021/07/10 11:05:33;;;;;;;10.45;8.70;;;;;;;;;;5013869;28;20183;-71
2021/07/10 11:08:17;;;;;;;12.70;9.50;;;;;;;;;;5027953;28;20182;-70
2021/07/10 11:10:46;;;;;;;15.18;10.70;;;;;;;;;;5016258;28;20221;-72
2021/07/10 11:13:37;;;;;;;11.88;10.05;;;;;;;;;;5026834;28;20679;-71
2021/07/10 11:16:09;;;;;;;14.50;11.32;;;;;;;;;;5018740;28;20253;-72
2021/07/10 11:18:54;;;;;;;16.77;11.48;;;;;;;;;;5029247;28;20182;-71
2021/07/10 11:21:31;;;;;;;77.60;16.08;;;;;;;;;;5013985;28;20249;-72
2021/07/10 11:24:19;;;;;;;15.90;11.80;;;;;;;;;;5026021;28;20862;-71
2021/07/10 11:26:54;;;;;;;16.40;11.20;;;;;;;;;;5018817;28;20181;-72
2021/07/10 11:29:25;;;;;;;12.85;10.63;;;;;;;;;;5008555;28;20197;-72
2021/07/10 11:31:52;;;;;;;15.38;10.50;;;;;;;;;;4997215;28;20559;-71
2021/07/10 11:34:33;;;;;;;15.63;11.57;;;;;;;;;;5023812;28;20729;-70
2021/07/10 11:37:09;;;;;;;14.73;11.35;;;;;;;;;;5001759;28;20517;-71
2021/07/10 11:39:37;;;;;;;12.10;10.65;;;;;;;;;;5021929;28;20655;-71
2021/07/10 11:42:17;;;;;;;14.85;10.75;;;;;;;;;;5018518;28;20178;-70
2021/07/10 11:44:43;;;;;;;12.65;11.27;;;;;;;;;;5023502;28;20186;-71
2021/07/10 11:47:09;;;;;;;15.57;12.00;;;;;;;;;;5021528;28;20604;-72
2021/07/10 11:49:40;;;;;;;13.82;11.32;;;;;;;;;;5027675;28;20230;-70
2021/07/10 11:52:09;;;;;;;14.52;10.68;;;;;;;;;;5027622;28;20193;-71
2021/07/10 11:54:37;;;;;;;13.18;10.27;;;;;;;;;;5016272;28;20565;-71
2021/07/10 11:57:03;;;;;;;13.70;9.93;;;;;;;;;;5028660;28;20196;-72
2021/07/10 11:59:32;;;;;;;13.52;9.38;;;;;;;;;;5012876;28;20194;-72
2021/07/10 12:02:13;;;;;;;11.40;9.77;;;;;;;;;;5028831;28;20182;-73
2021/07/10 12:04:39;;;;;;;13.32;10.20;;;;;;;;;;5016716;28;20185;-72
2021/07/10 12:07:20;;;;;;;14.50;10.95;;;;;;;;;;5026820;28;20190;-72
2021/07/10 12:09:50;;;;;;;16.30;10.80;;;;;;;;;;5017129;28;20649;-72
2021/07/10 12:12:15;;;;;;;11.70;9.90;;;;;;;;;;5026476;28;20276;-72
2021/07/10 12:14:49;;;;;;;15.73;10.13;;;;;;;;;;5018255;28;20340;-73
2021/07/10 12:17:14;;;;;;;12.00;9.98;;;;;;;;;;5026721;28;20178;-72
2021/07/10 12:19:40;;;;;;;12.35;10.93;;;;;;;;;;5018914;28;20243;-72
2021/07/10 12:22:08;;;;;;;14.75;11.32;;;;;;;;;;5025137;28;20277;-72
2021/07/10 12:24:34;;;;;;;14.88;11.35;;;;;;;;;;5016595;28;20187;-72
2021/07/10 12:27:10;;;;;;;16.67;11.18;;;;;;;;;;5024280;28;20178;-72
2021/07/10 12:29:36;;;;;;;15.13;11.48;;;;;;;;;;5014228;28;20234;-73
2021/07/10 12:32:01;;;;;;;13.77;11.02;;;;;;;;;;5028271;28;20597;-73
2021/07/10 12:34:26;;;;;;;12.27;10.60;;;;;;;;;;5014338;28;20201;-71
2021/07/10 12:36:52;;;;;;;13.65;10.23;;;;;;;;;;5022949;28;20198;-72
2021/07/10 12:39:19;;;;;;;11.90;10.10;;;;;;;;;;5009460;28;20213;-72
2021/07/10 12:41:56;;;;;;;13.45;9.73;;;;;;;;;;5012826;28;20584;-72
2021/07/10 12:44:25;;;;;;;12.23;10.10;;;;;;;;;;5022408;28;20194;-72
2021/07/10 12:47:05;;;;;;;12.80;9.88;;;;;;;;;;5010770;28;20189;-72
2021/07/10 12:49:51;;;;;;;13.80;10.52;;;;;;;;;;5017209;28;20608;-70
2021/07/10 12:52:25;;;;;;;13.48;10.35;;;;;;;;;;5013638;28;20182;-71
2021/07/10 12:54:54;;;;;;;11.77;9.25;;;;;;;;;;5027421;28;20221;-68
2021/07/10 12:57:28;;;;;;;10.98;9.35;;;;;;;;;;5012588;28;20714;-69
2021/07/10 12:59:57;;;;;;;12.07;8.98;;;;;;;;;;5027313;28;20201;-69
2021/07/10 13:02:29;;;;;;;10.32;8.60;;;;;;;;;;5015610;28;20206;-73
2021/07/10 13:04:56;;;;;;;9.13;7.38;;;;;;;;;;5010436;28;20209;-70
2021/07/10 13:07:32;;;;;;;8.70;7.60;;;;;;;;;;5016236;28;20202;-69
2021/07/10 13:09:59;;;;;;;8.23;7.10;;;;;;;;;;5019839;28;20190;-70
2021/07/10 13:12:44;;;;;;;9.07;6.95;;;;;;;;;;5015996;28;20205;-71
2021/07/10 13:15:12;;;;;;;8.85;7.00;;;;;;;;;;5008058;28;21178;-72
2021/07/10 13:17:37;;;;;;;8.50;7.22;;;;;;;;;;4997743;28;20193;-69
2021/07/10 13:20:29;;;;;;;8.80;7.15;;;;;;;;;;5025609;28;20194;-69
2021/07/10 13:22:55;;;;;;;10.93;6.70;;;;;;;;;;5015372;28;20182;-69
2021/07/10 13:25:20;;;;;;;7.22;6.20;;;;;;;;;;5016393;28;20270;-70
2021/07/10 13:27:46;;;;;;;8.05;6.38;;;;;;;;;;5015103;28;20182;-72
2021/07/10 13:30:17;;;;;;;6.05;5.30;;;;;;;;;;5024127;28;20586;-71
2021/07/10 13:32:54;;;;;;;9.95;6.22;;;;;;;;;;5013825;28;20197;-72
2021/07/10 13:35:24;;;;;;;7.70;6.43;;;;;;;;;;5025320;28;20271;-72
2021/07/10 13:37:50;;;;;;;7.40;5.95;;;;;;;;;;4992789;28;20188;-71
2021/07/10 13:40:21;;;;;;;8.35;6.75;;;;;;;;;;5024974;28;20269;-71
2021/07/10 13:42:56;;;;;;;7.50;6.75;;;;;;;;;;5010516;28;20186;-71
2021/07/10 13:45:22;;;;;;;7.82;6.82;;;;;;;;;;5020842;28;20273;-70
2021/07/10 13:47:48;;;;;;;9.45;7.15;;;;;;;;;;5026016;28;20261;-71
2021/07/10 13:50:13;;;;;;;9.38;7.32;;;;;;;;;;5015402;28;20192;-70
2021/07/10 13:52:41;;;;;;;10.48;6.70;;;;;;;;;;5022162;28;20171;-70
2021/07/10 13:55:11;;;;;;;9.65;7.20;;;;;;;;;;5013887;28;20202;-71
2021/07/10 13:57:40;;;;;;;9.02;7.68;;;;;;;;;;5026091;28;20267;-70
2021/07/10 14:00:12;;;;;;;8.65;7.75;;;;;;;;;;5013698;28;20234;-71
2021/07/10 14:02:45;;;;;;;10.27;8.45;;;;;;;;;;5021381;28;20193;-70
2021/07/10 14:05:22;;;;;;;10.70;7.97;;;;;;;;;;5013381;28;20201;-70
2021/07/10 14:08:02;;;;;;;9.77;7.60;;;;;;;;;;5024432;28;20532;-69
2021/07/10 14:10:34;;;;;;;14.27;8.40;;;;;;;;;;5015964;28;20186;-69
2021/07/10 14:13:07;;;;;;;11.65;7.72;;;;;;;;;;5024585;28;20241;-70
2021/07/10 14:15:34;;;;;;;9.90;7.97;;;;;;;;;;5013336;28;20268;-70
2021/07/10 14:18:00;;;;;;;8.90;8.00;;;;;;;;;;5022830;28;20243;-70
2021/07/10 14:20:27;;;;;;;8.23;7.43;;;;;;;;;;5014732;28;20190;-69
2021/07/10 14:22:52;;;;;;;10.73;8.05;;;;;;;;;;5023429;28;20190;-70
2021/07/10 14:25:20;;;;;;;8.80;7.57;;;;;;;;;;5011656;28;20988;-70